Piper City, Illinois
Current Conditions -  °F | °C
As of 11:35 AM on Wednesday 26 Nov 2014 (Local Time) from KPNT Reporting Station
Overcast Overcast  
Wind Chill: 21°   Ceiling: 1400
Heat Index: 29°   Visibility: 10mi
Dew Point: 25°   Wind: 8mph
Humidity: 86%   Direction: 120°ESE
Pressure: 30.11"   Gusts: NA
Location:  40.76°N, 88.19°W
Report Text: KPNT 261735Z AUTO 12007KT 10SM OVC014 M02/M04 A3011 RMK AO2 T10181038
Loading
Personal Weather Stations






























Interactive Weather Map New forecast layout! Learn more

10-Day Weather Forecast

Advertisements
Track Severe Weather on mobile